sensor_id;sensor_type;location;lat;lon;timestamp;pressure;altitude;pressure_sealevel;temperature;humidity
6425;BME280;12193;42.642;23.384;2023-11-19T00:02:20;94359.91;;;3.58;100.00
6425;BME280;12193;42.642;23.384;2023-11-19T00:04:49;94364.91;;;3.59;100.00
6425;BME280;12193;42.642;23.384;2023-11-19T00:07:19;94357.06;;;3.53;100.00
6425;BME280;12193;42.642;23.384;2023-11-19T00:09:48;94365.41;;;3.55;100.00
6425;BME280;12193;42.642;23.384;2023-11-19T00:12:18;94364.75;;;3.61;100.00
6425;BME280;12193;42.642;23.384;2023-11-19T00:14:51;94371.34;;;3.63;100.00
6425;BME280;12193;42.642;23.384;2023-11-19T00:17:21;94367.47;;;3.51;100.00
6425;BME280;12193;42.642;23.384;2023-11-19T00:19:50;94368.59;;;3.65;100.00
6425;BME280;12193;42.642;23.384;2023-11-19T00:22:19;94381.78;;;3.54;100.00
6425;BME280;12193;42.642;23.384;2023-11-19T00:24:49;94382.72;;;3.61;100.00
6425;BME280;12193;42.642;23.384;2023-11-19T00:27:18;94361.22;;;3.62;100.00
6425;BME280;12193;42.642;23.384;2023-11-19T00:29:47;94371.97;;;3.57;100.00
6425;BME280;12193;42.642;23.384;2023-11-19T00:32:19;94360.41;;;3.53;100.00
6425;BME280;12193;42.642;23.384;2023-11-19T00:34:48;94378.69;;;3.74;100.00
6425;BME280;12193;42.642;23.384;2023-11-19T00:37:18;94376.78;;;3.68;100.00
6425;BME280;12193;42.642;23.384;2023-11-19T00:39:47;94381.78;;;3.70;100.00
6425;BME280;12193;42.642;23.384;2023-11-19T00:42:18;94379.50;;;3.67;100.00
6425;BME280;12193;42.642;23.384;2023-11-19T00:44:47;94375.50;;;3.64;100.00
6425;BME280;12193;42.642;23.384;2023-11-19T00:47:19;94387.22;;;3.67;100.00
6425;BME280;12193;42.642;23.384;2023-11-19T00:49:48;94392.72;;;3.56;100.00
6425;BME280;12193;42.642;23.384;2023-11-19T00:52:18;94389.16;;;3.49;100.00
6425;BME280;12193;42.642;23.384;2023-11-19T00:54:48;94371.34;;;3.55;100.00
6425;BME280;12193;42.642;23.384;2023-11-19T00:57:17;94383.22;;;3.48;100.00
6425;BME280;12193;42.642;23.384;2023-11-19T00:59:46;94384.19;;;3.55;100.00
6425;BME280;12193;42.642;23.384;2023-11-19T01:02:15;94384.19;;;3.63;100.00
6425;BME280;12193;42.642;23.384;2023-11-19T01:04:47;94385.47;;;3.59;100.00
6425;BME280;12193;42.642;23.384;2023-11-19T04:08:30;94441.66;;;3.38;100.00
6425;BME280;12193;42.642;23.384;2023-11-19T04:11:01;94436.81;;;3.19;100.00
6425;BME280;12193;42.642;23.384;2023-11-19T04:13:31;94451.44;;;3.27;100.00
6425;BME280;12193;42.642;23.384;2023-11-19T04:16:01;94451.59;;;3.25;100.00
6425;BME280;12193;42.642;23.384;2023-11-19T04:18:30;94445.81;;;3.23;100.00
6425;BME280;12193;42.642;23.384;2023-11-19T04:21:00;94444.84;;;3.24;100.00
6425;BME280;12193;42.642;23.384;2023-11-19T04:23:32;94445.19;;;3.21;100.00
6425;BME280;12193;42.642;23.384;2023-11-19T04:26:02;94435.69;;;3.22;100.00
6425;BME280;12193;42.642;23.384;2023-11-19T04:28:33;94438.25;;;3.14;100.00
6425;BME280;12193;42.642;23.384;2023-11-19T04:31:02;94430.88;;;3.11;100.00
6425;BME280;12193;42.642;23.384;2023-11-19T04:33:32;94447.38;;;3.08;100.00
6425;BME280;12193;42.642;23.384;2023-11-19T04:36:01;94452.53;;;3.16;100.00
6425;BME280;12193;42.642;23.384;2023-11-19T04:38:33;94457.50;;;3.18;100.00
6425;BME280;12193;42.642;23.384;2023-11-19T04:41:05;94445.19;;;3.21;100.00
6425;BME280;12193;42.642;23.384;2023-11-19T04:43:35;94460.88;;;3.18;100.00
6425;BME280;12193;42.642;23.384;2023-11-19T04:46:05;94445.81;;;3.23;100.00
6425;BME280;12193;42.642;23.384;2023-11-19T04:48:34;94449.81;;;3.18;100.00
6425;BME280;12193;42.642;23.384;2023-11-19T04:51:05;94456.72;;;3.17;100.00
6425;BME280;12193;42.642;23.384;2023-11-19T04:53:38;94457.34;;;3.27;100.00
6425;BME280;12193;42.642;23.384;2023-11-19T04:56:08;94458.81;;;3.22;100.00
6425;BME280;12193;42.642;23.384;2023-11-19T04:58:37;94447.75;;;3.21;100.00
6425;BME280;12193;42.642;23.384;2023-11-19T05:01:13;94461.69;;;3.19;100.00
6425;BME280;12193;42.642;23.384;2023-11-19T05:03:43;94461.34;;;3.06;100.00
6425;BME280;12193;42.642;23.384;2023-11-19T05:06:12;94455.06;;;3.01;100.00
6425;BME280;12193;42.642;23.384;2023-11-19T05:08:44;94469.81;;;3.06;100.00
6425;BME280;12193;42.642;23.384;2023-11-19T05:11:13;94477.34;;;3.00;100.00
6425;BME280;12193;42.642;23.384;2023-11-19T05:13:46;94476.13;;;3.12;100.00
6425;BME280;12193;42.642;23.384;2023-11-19T05:16:16;94482.88;;;3.13;100.00
6425;BME280;12193;42.642;23.384;2023-11-19T05:18:47;94477.22;;;3.09;100.00
6425;BME280;12193;42.642;23.384;2023-11-19T05:21:16;94471.50;;;3.23;100.00
6425;BME280;12193;42.642;23.384;2023-11-19T05:23:47;94478.38;;;3.15;100.00
6425;BME280;12193;42.642;23.384;2023-11-19T05:26:20;94466.81;;;3.11;100.00
6425;BME280;12193;42.642;23.384;2023-11-19T05:28:50;94467.13;;;3.16;100.00
6425;BME280;12193;42.642;23.384;2023-11-19T05:31:19;94468.25;;;3.13;100.00
6425;BME280;12193;42.642;23.384;2023-11-19T05:33:49;94470.50;;;3.16;100.00
6425;BME280;12193;42.642;23.384;2023-11-19T05:36:18;94484.97;;;3.17;100.00
6425;BME280;12193;42.642;23.384;2023-11-19T05:38:49;94480.81;;;3.24;100.00
6425;BME280;12193;42.642;23.384;2023-11-19T05:41:18;94489.41;;;3.07;100.00
6425;BME280;12193;42.642;23.384;2023-11-19T05:43:48;94487.50;;;3.02;100.00
6425;BME280;12193;42.642;23.384;2023-11-19T05:46:17;94502.25;;;3.07;100.00
6425;BME280;12193;42.642;23.384;2023-11-19T05:48:47;94497.59;;;3.03;100.00
6425;BME280;12193;42.642;23.384;2023-11-19T05:51:17;94500.50;;;3.16;100.00
6425;BME280;12193;42.642;23.384;2023-11-19T05:53:49;94487.66;;;3.16;100.00
6425;BME280;12193;42.642;23.384;2023-11-19T05:56:18;94475.00;;;3.14;100.00
6425;BME280;12193;42.642;23.384;2023-11-19T05:58:47;94488.31;;;3.18;100.00
6425;BME280;12193;42.642;23.384;2023-11-19T06:01:17;94484.75;;;2.95;100.00
6425;BME280;12193;42.642;23.384;2023-11-19T06:03:46;94500.94;;;2.96;100.00
6425;BME280;12193;42.642;23.384;2023-11-19T06:06:16;94511.25;;;3.11;100.00
6425;BME280;12193;42.642;23.384;2023-11-19T06:08:45;94503.53;;;3.11;100.00
6425;BME280;12193;42.642;23.384;2023-11-19T06:11:17;94498.88;;;3.07;100.00
6425;BME280;12193;42.642;23.384;2023-11-19T06:13:46;94515.09;;;3.07;100.00
6425;BME280;12193;42.642;23.384;2023-11-19T06:16:17;94505.28;;;3.03;100.00
6425;BME280;12193;42.642;23.384;2023-11-19T06:18:46;94503.84;;;3.08;100.00
6425;BME280;12193;42.642;23.384;2023-11-19T06:21:15;94511.25;;;3.04;100.00
6425;BME280;12193;42.642;23.384;2023-11-19T06:23:44;94496.78;;;3.03;100.00
6425;BME280;12193;42.642;23.384;2023-11-19T06:26:16;94493.94;;;3.13;100.00
6425;BME280;12193;42.642;23.384;2023-11-19T06:28:45;94507.09;;;3.18;100.00
6425;BME280;12193;42.642;23.384;2023-11-19T06:31:14;94510.31;;;3.20;100.00
6425;BME280;12193;42.642;23.384;2023-11-19T06:33:43;94503.75;;;3.26;100.00
6425;BME280;12193;42.642;23.384;2023-11-19T06:36:14;94507.91;;;3.19;100.00
6425;BME280;12193;42.642;23.384;2023-11-19T06:38:43;94501.31;;;3.16;100.00
6425;BME280;12193;42.642;23.384;2023-11-19T06:41:15;94511.94;;;3.21;100.00
6425;BME280;12193;42.642;23.384;2023-11-19T06:43:44;94519.44;;;3.07;100.00
6425;BME280;12193;42.642;23.384;2023-11-19T06:46:17;94506.28;;;3.10;100.00
6425;BME280;12193;42.642;23.384;2023-11-19T06:48:46;94502.75;;;3.19;100.00
6425;BME280;12193;42.642;23.384;2023-11-19T06:51:15;94512.06;;;3.12;100.00
6425;BME280;12193;42.642;23.384;2023-11-19T06:53:45;94519.00;;;3.19;100.00
6425;BME280;12193;42.642;23.384;2023-11-19T06:56:21;94525.91;;;3.27;100.00
6425;BME280;12193;42.642;23.384;2023-11-19T06:58:50;94527.03;;;3.24;100.00
6425;BME280;12193;42.642;23.384;2023-11-19T07:01:20;94520.00;;;3.42;100.00
6425;BME280;12193;42.642;23.384;2023-11-19T07:03:50;94523.03;;;3.38;100.00
6425;BME280;12193;42.642;23.384;2023-11-19T07:06:20;94528.16;;;3.38;100.00
6425;BME280;12193;42.642;23.384;2023-11-19T07:08:49;94528.72;;;3.57;100.00
6425;BME280;12193;42.642;23.384;2023-11-19T07:11:21;94520.66;;;3.44;100.00
6425;BME280;12193;42.642;23.384;2023-11-19T07:13:50;94536.78;;;3.21;100.00
6425;BME280;12193;42.642;23.384;2023-11-19T07:16:20;94536.84;;;3.29;100.00
6425;BME280;12193;42.642;23.384;2023-11-19T07:18:50;94535.34;;;3.18;100.00
6425;BME280;12193;42.642;23.384;2023-11-19T07:21:20;94542.13;;;3.35;100.00
6425;BME280;12193;42.642;23.384;2023-11-19T07:23:49;94555.31;;;3.40;100.00
6425;BME280;12193;42.642;23.384;2023-11-19T07:26:21;94561.44;;;3.47;100.00
6425;BME280;12193;42.642;23.384;2023-11-19T07:28:50;94555.84;;;3.52;100.00
6425;BME280;12193;42.642;23.384;2023-11-19T07:31:21;94556.94;;;3.41;100.00
6425;BME280;12193;42.642;23.384;2023-11-19T07:33:50;94554.94;;;3.27;100.00
6425;BME280;12193;42.642;23.384;2023-11-19T07:36:20;94586.03;;;3.50;100.00
6425;BME280;12193;42.642;23.384;2023-11-19T07:38:49;94584.94;;;3.60;100.00
6425;BME280;12193;42.642;23.384;2023-11-19T07:41:21;94577.88;;;3.62;100.00
6425;BME280;12193;42.642;23.384;2023-11-19T07:43:51;94575.94;;;3.64;100.00
6425;BME280;12193;42.642;23.384;2023-11-19T07:46:20;94581.91;;;3.81;100.00
6425;BME280;12193;42.642;23.384;2023-11-19T07:48:52;94580.44;;;3.62;100.00
6425;BME280;12193;42.642;23.384;2023-11-19T07:51:21;94563.50;;;3.44;100.00
6425;BME280;12193;42.642;23.384;2023-11-19T07:53:50;94575.50;;;3.27;100.00
6425;BME280;12193;42.642;23.384;2023-11-19T07:56:22;94581.91;;;3.23;100.00
6425;BME280;12193;42.642;23.384;2023-11-19T07:58:51;94584.38;;;3.41;100.00
6425;BME280;12193;42.642;23.384;2023-11-19T08:01:21;94582.25;;;3.28;100.00
6425;BME280;12193;42.642;23.384;2023-11-19T08:03:50;94579.13;;;3.58;100.00
6425;BME280;12193;42.642;23.384;2023-11-19T08:06:19;94587.22;;;3.79;100.00
6425;BME280;12193;42.642;23.384;2023-11-19T08:08:46;94589.78;;;3.79;100.00
6425;BME280;12193;42.642;23.384;2023-11-19T08:11:16;94578.06;;;3.85;100.00
6425;BME280;12193;42.642;23.384;2023-11-19T08:13:48;94590.44;;;3.97;100.00
6425;BME280;12193;42.642;23.384;2023-11-19T08:16:18;94594.78;;;4.05;100.00
6425;BME280;12193;42.642;23.384;2023-11-19T08:18:47;94599.16;;;4.04;99.40
6425;BME280;12193;42.642;23.384;2023-11-19T08:21:16;94586.28;;;4.36;98.05
6425;BME280;12193;42.642;23.384;2023-11-19T08:23:47;94606.06;;;4.27;97.63
6425;BME280;12193;42.642;23.384;2023-11-19T08:26:16;94598.69;;;4.16;97.15
6425;BME280;12193;42.642;23.384;2023-11-19T08:28:48;94595.47;;;4.14;97.60
6425;BME280;12193;42.642;23.384;2023-11-19T08:31:18;94593.34;;;3.86;99.18
6425;BME280;12193;42.642;23.384;2023-11-19T08:33:47;94589.63;;;3.81;99.67
6425;BME280;12193;42.642;23.384;2023-11-19T08:36:16;94597.38;;;3.97;99.94
6425;BME280;12193;42.642;23.384;2023-11-19T08:38:45;94590.13;;;4.32;96.30
6425;BME280;12193;42.642;23.384;2023-11-19T08:41:16;94597.22;;;4.06;97.54
6425;BME280;12193;42.642;23.384;2023-11-19T08:43:48;94612.28;;;3.93;98.80
6425;BME280;12193;42.642;23.384;2023-11-19T08:46:17;94618.72;;;3.81;99.03
6425;BME280;12193;42.642;23.384;2023-11-19T08:48:47;94613.72;;;3.80;99.78
6425;BME280;12193;42.642;23.384;2023-11-19T08:51:16;94616.69;;;4.16;97.58
6425;BME280;12193;42.642;23.384;2023-11-19T08:53:45;94605.38;;;4.81;96.18
6425;BME280;12193;42.642;23.384;2023-11-19T08:56:14;94614.13;;;7.50;83.45
6425;BME280;12193;42.642;23.384;2023-11-19T08:58:43;94616.16;;;8.61;73.54
6425;BME280;12193;42.642;23.384;2023-11-19T09:01:15;94621.97;;;9.79;61.40
6425;BME280;12193;42.642;23.384;2023-11-19T09:03:44;94607.00;;;9.81;57.68
6425;BME280;12193;42.642;23.384;2023-11-19T09:06:13;94605.94;;;9.28;58.25
6425;BME280;12193;42.642;23.384;2023-11-19T09:08:43;94592.72;;;8.69;60.46
6425;BME280;12193;42.642;23.384;2023-11-19T09:11:12;94587.72;;;8.46;62.45
6425;BME280;12193;42.642;23.384;2023-11-19T09:13:41;94586.72;;;7.70;65.01
6425;BME280;12193;42.642;23.384;2023-11-19T09:16:12;94578.13;;;8.20;63.20
6425;BME280;12193;42.642;23.384;2023-11-19T09:18:44;94572.03;;;8.48;61.20
6425;BME280;12193;42.642;23.384;2023-11-19T09:21:13;94583.25;;;8.34;60.63
6425;BME280;12193;42.642;23.384;2023-11-19T09:23:42;94583.88;;;9.12;58.31
6425;BME280;12193;42.642;23.384;2023-11-19T09:26:13;94592.75;;;8.13;62.01
6425;BME280;12193;42.642;23.384;2023-11-19T09:28:42;94591.34;;;6.88;67.90
6425;BME280;12193;42.642;23.384;2023-11-19T09:31:15;94592.91;;;6.38;71.70
6425;BME280;12193;42.642;23.384;2023-11-19T09:33:47;94593.03;;;5.69;75.61
6425;BME280;12193;42.642;23.384;2023-11-19T09:36:17;94592.81;;;4.94;79.21
6425;BME280;12193;42.642;23.384;2023-11-19T09:38:46;94577.69;;;4.91;81.09
6425;BME280;12193;42.642;23.384;2023-11-19T09:41:15;94561.78;;;4.72;82.08
6425;BME280;12193;42.642;23.384;2023-11-19T09:43:45;94536.88;;;4.64;82.76
6425;BME280;12193;42.642;23.384;2023-11-19T09:46:15;94539.16;;;4.51;83.90
6425;BME280;12193;42.642;23.384;2023-11-19T09:48:47;94547.03;;;4.50;84.37
6425;BME280;12193;42.642;23.384;2023-11-19T09:51:19;94539.59;;;4.79;83.51
6425;BME280;12193;42.642;23.384;2023-11-19T09:53:48;94528.22;;;5.42;81.25
6425;BME280;12193;42.642;23.384;2023-11-19T09:56:18;94498.06;;;7.62;70.21
6425;BME280;12193;42.642;23.384;2023-11-19T09:58:48;94511.06;;;9.07;60.92
6425;BME280;12193;42.642;23.384;2023-11-19T10:01:17;94506.19;;;9.84;56.98
6425;BME280;12193;42.642;23.384;2023-11-19T10:03:50;94518.66;;;10.08;56.60
6425;BME280;12193;42.642;23.384;2023-11-19T10:06:21;94501.28;;;10.15;54.36
6425;BME280;12193;42.642;23.384;2023-11-19T10:08:53;94498.22;;;9.99;54.78
6425;BME280;12193;42.642;23.384;2023-11-19T10:11:22;94482.88;;;9.97;54.36
6425;BME280;12193;42.642;23.384;2023-11-19T10:13:51;94479.88;;;9.40;55.26
6425;BME280;12193;42.642;23.384;2023-11-19T10:16:28;94479.50;;;9.50;57.03
6425;BME280;12193;42.642;23.384;2023-11-19T10:19:01;94486.19;;;8.85;59.77
6425;BME280;12193;42.642;23.384;2023-11-19T10:21:32;94493.09;;;8.44;60.44
6425;BME280;12193;42.642;23.384;2023-11-19T10:24:02;94492.50;;;8.48;61.60
6425;BME280;12193;42.642;23.384;2023-11-19T10:26:32;94503.34;;;7.89;63.15
6425;BME280;12193;42.642;23.384;2023-11-19T10:29:01;94498.25;;;7.81;64.03
6425;BME280;12193;42.642;23.384;2023-11-19T10:31:30;94517.81;;;7.48;63.61
6425;BME280;12193;42.642;23.384;2023-11-19T10:34:02;94515.84;;;7.50;63.59
6425;BME280;12193;42.642;23.384;2023-11-19T10:36:38;94497.88;;;7.28;66.17
6425;BME280;12193;42.642;23.384;2023-11-19T10:39:09;94489.69;;;7.24;66.88
6425;BME280;12193;42.642;23.384;2023-11-19T10:41:39;94491.06;;;6.77;68.16
6425;BME280;12193;42.642;23.384;2023-11-19T10:44:09;94488.19;;;6.87;67.56
6425;BME280;12193;42.642;23.384;2023-11-19T10:46:40;94492.81;;;6.77;68.92
6425;BME280;12193;42.642;23.384;2023-11-19T10:49:12;94482.03;;;6.59;69.29
6425;BME280;12193;42.642;23.384;2023-11-19T10:51:44;94484.00;;;6.71;70.50
6425;BME280;12193;42.642;23.384;2023-11-19T10:54:15;94490.31;;;6.54;69.69
6425;BME280;12193;42.642;23.384;2023-11-19T10:56:54;94495.75;;;5.86;72.12
6425;BME280;12193;42.642;23.384;2023-11-19T10:59:25;94483.94;;;6.14;73.14
6425;BME280;12193;42.642;23.384;2023-11-19T11:01:57;94503.22;;;6.54;73.25
6425;BME280;12193;42.642;23.384;2023-11-19T11:04:32;94487.75;;;6.54;70.81
6425;BME280;12193;42.642;23.384;2023-11-19T11:07:04;94501.38;;;6.63;71.14
6425;BME280;12193;42.642;23.384;2023-11-19T11:09:33;94498.06;;;6.83;70.07
6425;BME280;12193;42.642;23.384;2023-11-19T11:12:04;94495.94;;;6.87;69.92
6425;BME280;12193;42.642;23.384;2023-11-19T11:14:38;94482.69;;;6.90;69.16
6425;BME280;12193;42.642;23.384;2023-11-19T11:17:08;94481.16;;;6.95;70.11
6425;BME280;12193;42.642;23.384;2023-11-19T11:19:41;94475.19;;;6.80;68.25
6425;BME280;12193;42.642;23.384;2023-11-19T11:22:12;94472.50;;;6.88;69.39
6425;BME280;12193;42.642;23.384;2023-11-19T11:25:01;94482.50;;;6.62;67.87
6425;BME280;12193;42.642;23.384;2023-11-19T11:28:12;94476.97;;;6.65;68.54
6425;BME280;12193;42.642;23.384;2023-11-19T11:30:53;94473.31;;;6.60;69.38
6425;BME280;12193;42.642;23.384;2023-11-19T11:33:38;94479.81;;;6.56;68.26
6425;BME280;12193;42.642;23.384;2023-11-19T11:36:19;94478.84;;;6.71;69.85
6425;BME280;12193;42.642;23.384;2023-11-19T11:38:49;94487.19;;;6.59;68.65
6425;BME280;12193;42.642;23.384;2023-11-19T11:41:19;94482.22;;;6.57;69.10
6425;BME280;12193;42.642;23.384;2023-11-19T11:43:50;94467.34;;;6.74;67.90
6425;BME280;12193;42.642;23.384;2023-11-19T11:49:27;94453.25;;;6.33;69.62
6425;BME280;12193;42.642;23.384;2023-11-19T11:52:04;94451.47;;;6.19;70.37
6425;BME280;12193;42.642;23.384;2023-11-19T11:54:34;94453.72;;;6.65;68.56
6425;BME280;12193;42.642;23.384;2023-11-19T11:57:08;94460.50;;;6.66;69.37
6425;BME280;12193;42.642;23.384;2023-11-19T11:59:46;94471.72;;;6.73;71.10
6425;BME280;12193;42.642;23.384;2023-11-19T12:02:17;94468.94;;;6.89;68.79
6425;BME280;12193;42.642;23.384;2023-11-19T12:04:48;94476.06;;;6.87;68.44
6425;BME280;12193;42.642;23.384;2023-11-19T12:07:21;94477.59;;;6.96;68.34
6425;BME280;12193;42.642;23.384;2023-11-19T12:10:06;94489.06;;;6.94;67.69
6425;BME280;12193;42.642;23.384;2023-11-19T12:12:38;94470.91;;;7.02;69.16
6425;BME280;12193;42.642;23.384;2023-11-19T12:15:08;94472.50;;;7.17;66.84
6425;BME280;12193;42.642;23.384;2023-11-19T12:17:47;94451.91;;;7.09;67.62
6425;BME280;12193;42.642;23.384;2023-11-19T12:20:20;94456.03;;;6.75;68.35
6425;BME280;12193;42.642;23.384;2023-11-19T12:22:53;94452.13;;;6.79;68.52
6425;BME280;12193;42.642;23.384;2023-11-19T12:25:23;94447.31;;;6.90;67.91
6425;BME280;12193;42.642;23.384;2023-11-19T12:27:53;94443.66;;;6.99;67.04
6425;BME280;12193;42.642;23.384;2023-11-19T12:30:22;94442.66;;;7.00;68.95
6425;BME280;12193;42.642;23.384;2023-11-19T12:32:53;94445.13;;;7.08;66.94
6425;BME280;12193;42.642;23.384;2023-11-19T12:35:22;94434.56;;;7.03;67.26
6425;BME280;12193;42.642;23.384;2023-11-19T12:37:55;94429.16;;;6.69;69.12
6425;BME280;12193;42.642;23.384;2023-11-19T12:40:25;94429.69;;;6.79;69.15
6425;BME280;12193;42.642;23.384;2023-11-19T12:42:55;94413.66;;;6.69;69.01
6425;BME280;12193;42.642;23.384;2023-11-19T12:45:34;94419.63;;;6.70;68.98
6425;BME280;12193;42.642;23.384;2023-11-19T12:48:08;94418.91;;;6.76;69.76
6425;BME280;12193;42.642;23.384;2023-11-19T12:50:53;94414.63;;;6.83;68.63
6425;BME280;12193;42.642;23.384;2023-11-19T12:53:26;94418.72;;;6.77;69.45
6425;BME280;12193;42.642;23.384;2023-11-19T12:55:56;94411.88;;;6.70;70.25
6425;BME280;12193;42.642;23.384;2023-11-19T12:58:36;94415.72;;;6.45;71.70
6425;BME280;12193;42.642;23.384;2023-11-19T13:01:07;94414.91;;;6.44;71.91
6425;BME280;12193;42.642;23.384;2023-11-19T13:03:37;94415.81;;;6.51;72.19
6425;BME280;12193;42.642;23.384;2023-11-19T13:06:08;94412.25;;;6.52;72.51
6425;BME280;12193;42.642;23.384;2023-11-19T13:08:41;94409.47;;;6.54;73.04
6425;BME280;12193;42.642;23.384;2023-11-19T13:11:12;94408.41;;;6.34;74.02
6425;BME280;12193;42.642;23.384;2023-11-19T13:13:54;94414.75;;;6.46;73.58
6425;BME280;12193;42.642;23.384;2023-11-19T13:16:24;94411.44;;;6.52;72.76
6425;BME280;12193;42.642;23.384;2023-11-19T13:18:53;94405.06;;;6.98;71.64
6425;BME280;12193;42.642;23.384;2023-11-19T13:21:23;94405.47;;;6.80;71.02
6425;BME280;12193;42.642;23.384;2023-11-19T13:23:55;94394.66;;;6.91;70.87
6425;BME280;12193;42.642;23.384;2023-11-19T13:26:24;94395.47;;;6.92;71.79
6425;BME280;12193;42.642;23.384;2023-11-19T13:28:54;94392.63;;;6.72;71.97
6425;BME280;12193;42.642;23.384;2023-11-19T13:31:23;94374.50;;;7.01;70.92
6425;BME280;12193;42.642;23.384;2023-11-19T13:33:52;94380.66;;;7.00;72.00
6425;BME280;12193;42.642;23.384;2023-11-19T13:36:21;94384.75;;;6.95;70.58
6425;BME280;12193;42.642;23.384;2023-11-19T13:38:51;94386.53;;;6.94;70.40
6425;BME280;12193;42.642;23.384;2023-11-19T13:41:27;94385.28;;;7.05;71.03
6425;BME280;12193;42.642;23.384;2023-11-19T13:43:56;94392.63;;;6.87;71.01
6425;BME280;12193;42.642;23.384;2023-11-19T13:46:26;94390.53;;;6.61;72.53
6425;BME280;12193;42.642;23.384;2023-11-19T13:48:56;94386.22;;;6.68;72.28
6425;BME280;12193;42.642;23.384;2023-11-19T13:51:25;94399.69;;;6.78;72.97
6425;BME280;12193;42.642;23.384;2023-11-19T13:53:54;94407.94;;;6.88;72.94
6425;BME280;12193;42.642;23.384;2023-11-19T13:56:23;94403.31;;;6.84;72.05
6425;BME280;12193;42.642;23.384;2023-11-19T13:58:56;94400.72;;;6.84;71.49
6425;BME280;12193;42.642;23.384;2023-11-19T14:01:26;94406.09;;;6.68;70.56
6425;BME280;12193;42.642;23.384;2023-11-19T14:03:55;94399.56;;;6.86;69.54
6425;BME280;12193;42.642;23.384;2023-11-19T14:06:24;94412.59;;;6.78;70.12
6425;BME280;12193;42.642;23.384;2023-11-19T14:08:53;94406.78;;;6.91;71.38
6425;BME280;12193;42.642;23.384;2023-11-19T14:11:23;94411.16;;;6.76;71.72
6425;BME280;12193;42.642;23.384;2023-11-19T14:13:52;94414.19;;;6.65;70.15
6425;BME280;12193;42.642;23.384;2023-11-19T14:16:26;94416.34;;;6.47;72.02
6425;BME280;12193;42.642;23.384;2023-11-19T14:18:55;94419.44;;;6.57;72.82
6425;BME280;12193;42.642;23.384;2023-11-19T14:21:24;94426.31;;;6.35;72.72
6425;BME280;12193;42.642;23.384;2023-11-19T14:23:53;94437.28;;;6.15;74.50
6425;BME280;12193;42.642;23.384;2023-11-19T14:26:23;94439.69;;;6.02;76.19
6425;BME280;12193;42.642;23.384;2023-11-19T14:28:52;94440.84;;;6.00;76.52
6425;BME280;12193;42.642;23.384;2023-11-19T14:31:23;94443.06;;;6.03;76.22
6425;BME280;12193;42.642;23.384;2023-11-19T14:33:56;94439.00;;;5.86;77.58
6425;BME280;12193;42.642;23.384;2023-11-19T14:36:26;94436.63;;;5.76;78.29
6425;BME280;12193;42.642;23.384;2023-11-19T14:38:55;94433.41;;;5.60;79.03
6425;BME280;12193;42.642;23.384;2023-11-19T14:41:25;94420.28;;;5.69;78.93
6425;BME280;12193;42.642;23.384;2023-11-19T14:43:54;94425.53;;;5.53;79.21
6425;BME280;12193;42.642;23.384;2023-11-19T14:46:25;94429.28;;;5.51;80.95
6425;BME280;12193;42.642;23.384;2023-11-19T14:48:55;94424.00;;;5.67;78.50
6425;BME280;12193;42.642;23.384;2023-11-19T14:51:25;94437.97;;;5.50;80.31
6425;BME280;12193;42.642;23.384;2023-11-19T14:53:54;94435.28;;;5.43;80.82
6425;BME280;12193;42.642;23.384;2023-11-19T14:56:23;94427.53;;;5.21;82.85
6425;BME280;12193;42.642;23.384;2023-11-19T14:58:52;94432.63;;;5.29;84.37
6425;BME280;12193;42.642;23.384;2023-11-19T15:01:21;94442.53;;;5.17;84.38
6425;BME280;12193;42.642;23.384;2023-11-19T15:03:54;94438.88;;;5.04;87.16
6425;BME280;12193;42.642;23.384;2023-11-19T15:06:23;94425.00;;;5.13;90.98
6425;BME280;12193;42.642;23.384;2023-11-19T15:08:54;94440.28;;;5.14;91.80
6425;BME280;12193;42.642;23.384;2023-11-19T15:11:23;94438.00;;;5.19;92.54
6425;BME280;12193;42.642;23.384;2023-11-19T15:13:52;94451.28;;;5.09;90.61
6425;BME280;12193;42.642;23.384;2023-11-19T15:16:21;94456.28;;;5.02;92.49
6425;BME280;12193;42.642;23.384;2023-11-19T15:18:59;94458.41;;;4.99;90.44
6425;BME280;12193;42.642;23.384;2023-11-19T15:21:29;94463.56;;;4.91;91.65
6425;BME280;12193;42.642;23.384;2023-11-19T15:23:58;94467.44;;;4.95;89.16
6425;BME280;12193;42.642;23.384;2023-11-19T15:26:30;94476.13;;;4.94;90.25
6425;BME280;12193;42.642;23.384;2023-11-19T15:28:59;94472.34;;;5.12;88.05
6425;BME280;12193;42.642;23.384;2023-11-19T15:31:28;94472.63;;;4.87;89.38
6425;BME280;12193;42.642;23.384;2023-11-19T15:34:00;94457.63;;;4.98;89.32
6425;BME280;12193;42.642;23.384;2023-11-19T15:36:29;94460.19;;;4.98;92.00
6425;BME280;12193;42.642;23.384;2023-11-19T15:39:01;94448.31;;;4.89;92.23
6425;BME280;12193;42.642;23.384;2023-11-19T15:41:31;94438.22;;;4.72;91.99
6425;BME280;12193;42.642;23.384;2023-11-19T15:44:01;94441.88;;;4.85;92.82
6425;BME280;12193;42.642;23.384;2023-11-19T15:46:31;94444.34;;;4.71;93.04
6425;BME280;12193;42.642;23.384;2023-11-19T15:49:03;94446.91;;;4.79;93.83
6425;BME280;12193;42.642;23.384;2023-11-19T15:51:32;94442.91;;;4.76;93.02
6425;BME280;12193;42.642;23.384;2023-11-19T15:54:01;94455.16;;;5.05;93.33
6425;BME280;12193;42.642;23.384;2023-11-19T15:56:31;94453.78;;;4.86;90.00
6425;BME280;12193;42.642;23.384;2023-11-19T15:59:00;94447.44;;;5.05;89.65
6425;BME280;12193;42.642;23.384;2023-11-19T16:01:30;94447.56;;;5.11;90.76
6425;BME280;12193;42.642;23.384;2023-11-19T16:03:59;94444.22;;;5.03;89.34
6425;BME280;12193;42.642;23.384;2023-11-19T16:06:31;94459.13;;;4.85;89.02
6425;BME280;12193;42.642;23.384;2023-11-19T16:09:00;94460.41;;;4.89;88.90
6425;BME280;12193;42.642;23.384;2023-11-19T16:11:30;94450.09;;;4.89;88.42
6425;BME280;12193;42.642;23.384;2023-11-19T16:14:00;94458.47;;;4.83;89.44
6425;BME280;12193;42.642;23.384;2023-11-19T16:16:29;94458.75;;;4.57;91.96
6425;BME280;12193;42.642;23.384;2023-11-19T16:18:59;94472.81;;;4.77;92.10
6425;BME280;12193;42.642;23.384;2023-11-19T16:21:33;94465.75;;;4.71;91.08
6425;BME280;12193;42.642;23.384;2023-11-19T16:24:03;94463.38;;;4.62;92.43
6425;BME280;12193;42.642;23.384;2023-11-19T16:26:33;94459.97;;;4.69;91.42
6425;BME280;12193;42.642;23.384;2023-11-19T16:29:02;94450.50;;;4.62;91.82
6425;BME280;12193;42.642;23.384;2023-11-19T16:31:32;94444.53;;;4.61;92.46